sensor_id;sensor_type;location;lat;lon;timestamp;P1;durP1;ratioP1;P2;durP2;ratioP2
5813;SDS011;2933;52.302;8.134;2022-08-03T00:04:28;2.80;;;2.60;;
5813;SDS011;2933;52.302;8.134;2022-08-03T00:09:30;2.70;;;2.60;;
5813;SDS011;2933;52.302;8.134;2022-08-03T00:14:31;2.70;;;2.50;;
5813;SDS011;2933;52.302;8.134;2022-08-03T00:19:34;2.97;;;2.77;;
5813;SDS011;2933;52.302;8.134;2022-08-03T00:24:36;3.40;;;3.20;;
5813;SDS011;2933;52.302;8.134;2022-08-03T00:29:37;3.83;;;3.00;;
5813;SDS011;2933;52.302;8.134;2022-08-03T00:34:40;3.23;;;2.53;;
5813;SDS011;2933;52.302;8.134;2022-08-03T00:39:42;3.10;;;2.90;;
5813;SDS011;2933;52.302;8.134;2022-08-03T00:44:45;3.10;;;2.90;;
5813;SDS011;2933;52.302;8.134;2022-08-03T00:49:48;3.23;;;3.13;;
5813;SDS011;2933;52.302;8.134;2022-08-03T00:54:49;3.67;;;3.33;;
5813;SDS011;2933;52.302;8.134;2022-08-03T00:59:51;3.93;;;3.50;;
5813;SDS011;2933;52.302;8.134;2022-08-03T01:04:54;6.23;;;3.03;;
5813;SDS011;2933;52.302;8.134;2022-08-03T01:09:57;3.00;;;2.90;;
5813;SDS011;2933;52.302;8.134;2022-08-03T01:15:04;5.07;;;3.37;;
5813;SDS011;2933;52.302;8.134;2022-08-03T01:20:14;3.10;;;3.00;;
5813;SDS011;2933;52.302;8.134;2022-08-03T01:25:22;3.33;;;3.17;;
5813;SDS011;2933;52.302;8.134;2022-08-03T01:30:34;3.30;;;3.10;;
5813;SDS011;2933;52.302;8.134;2022-08-03T01:35:47;3.17;;;2.93;;
5813;SDS011;2933;52.302;8.134;2022-08-03T01:40:53;3.87;;;3.67;;
5813;SDS011;2933;52.302;8.134;2022-08-03T01:45:58;3.70;;;3.50;;
5813;SDS011;2933;52.302;8.134;2022-08-03T01:51:00;3.13;;;2.97;;
5813;SDS011;2933;52.302;8.134;2022-08-03T01:56:03;3.00;;;2.80;;
5813;SDS011;2933;52.302;8.134;2022-08-03T02:01:07;3.83;;;3.53;;
5813;SDS011;2933;52.302;8.134;2022-08-03T02:06:11;5.40;;;3.10;;
5813;SDS011;2933;52.302;8.134;2022-08-03T02:11:14;3.60;;;3.37;;
5813;SDS011;2933;52.302;8.134;2022-08-03T02:16:17;3.73;;;2.83;;
5813;SDS011;2933;52.302;8.134;2022-08-03T02:21:19;3.13;;;2.80;;
5813;SDS011;2933;52.302;8.134;2022-08-03T02:26:22;4.43;;;2.97;;
5813;SDS011;2933;52.302;8.134;2022-08-03T02:31:29;5.67;;;3.13;;
5813;SDS011;2933;52.302;8.134;2022-08-03T02:36:34;3.87;;;3.43;;
5813;SDS011;2933;52.302;8.134;2022-08-03T02:41:40;3.67;;;3.43;;
5813;SDS011;2933;52.302;8.134;2022-08-03T02:46:45;3.03;;;2.83;;
5813;SDS011;2933;52.302;8.134;2022-08-03T02:51:49;3.97;;;3.67;;
5813;SDS011;2933;52.302;8.134;2022-08-03T02:56:53;4.13;;;3.83;;
5813;SDS011;2933;52.302;8.134;2022-08-03T03:01:59;4.67;;;3.50;;
5813;SDS011;2933;52.302;8.134;2022-08-03T03:07:02;3.40;;;3.20;;
5813;SDS011;2933;52.302;8.134;2022-08-03T03:12:04;3.40;;;3.20;;
5813;SDS011;2933;52.302;8.134;2022-08-03T03:17:09;3.47;;;3.27;;
5813;SDS011;2933;52.302;8.134;2022-08-03T03:22:12;5.70;;;3.00;;
5813;SDS011;2933;52.302;8.134;2022-08-03T03:27:15;4.03;;;3.80;;
5813;SDS011;2933;52.302;8.134;2022-08-03T03:32:19;3.53;;;3.33;;
5813;SDS011;2933;52.302;8.134;2022-08-03T03:37:20;3.10;;;2.83;;
5813;SDS011;2933;52.302;8.134;2022-08-03T03:42:22;3.87;;;3.57;;
5813;SDS011;2933;52.302;8.134;2022-08-03T03:47:27;3.80;;;3.60;;
5813;SDS011;2933;52.302;8.134;2022-08-03T03:52:29;3.57;;;3.37;;
5813;SDS011;2933;52.302;8.134;2022-08-03T03:57:32;4.10;;;3.80;;
5813;SDS011;2933;52.302;8.134;2022-08-03T04:02:35;4.57;;;4.20;;
5813;SDS011;2933;52.302;8.134;2022-08-03T04:07:39;3.73;;;3.50;;
5813;SDS011;2933;52.302;8.134;2022-08-03T04:13:05;4.00;;;3.70;;
5813;SDS011;2933;52.302;8.134;2022-08-03T04:18:11;3.93;;;3.63;;
5813;SDS011;2933;52.302;8.134;2022-08-03T04:23:15;4.47;;;4.07;;
5813;SDS011;2933;52.302;8.134;2022-08-03T04:28:21;4.40;;;4.00;;
5813;SDS011;2933;52.302;8.134;2022-08-03T04:33:25;4.93;;;4.40;;
5813;SDS011;2933;52.302;8.134;2022-08-03T04:38:29;4.27;;;4.03;;
5813;SDS011;2933;52.302;8.134;2022-08-03T04:43:32;3.80;;;3.47;;
5813;SDS011;2933;52.302;8.134;2022-08-03T04:48:36;4.30;;;3.90;;
5813;SDS011;2933;52.302;8.134;2022-08-03T04:53:39;3.97;;;3.60;;
5813;SDS011;2933;52.302;8.134;2022-08-03T04:58:41;5.10;;;3.97;;
5813;SDS011;2933;52.302;8.134;2022-08-03T05:03:44;6.27;;;4.20;;
5813;SDS011;2933;52.302;8.134;2022-08-03T05:08:45;4.90;;;4.50;;
5813;SDS011;2933;52.302;8.134;2022-08-03T05:13:47;8.43;;;4.53;;
5813;SDS011;2933;52.302;8.134;2022-08-03T05:18:50;5.13;;;4.40;;
5813;SDS011;2933;52.302;8.134;2022-08-03T05:23:51;4.90;;;4.50;;
5813;SDS011;2933;52.302;8.134;2022-08-03T05:28:53;5.33;;;4.67;;
5813;SDS011;2933;52.302;8.134;2022-08-03T05:33:56;4.90;;;4.47;;
5813;SDS011;2933;52.302;8.134;2022-08-03T05:38:58;11.67;;;4.37;;
5813;SDS011;2933;52.302;8.134;2022-08-03T05:43:59;5.20;;;4.13;;
5813;SDS011;2933;52.302;8.134;2022-08-03T05:49:03;4.87;;;4.13;;
5813;SDS011;2933;52.302;8.134;2022-08-03T05:54:04;6.10;;;3.70;;
5813;SDS011;2933;52.302;8.134;2022-08-03T05:59:06;7.03;;;3.67;;
5813;SDS011;2933;52.302;8.134;2022-08-03T06:04:09;3.73;;;3.50;;
5813;SDS011;2933;52.302;8.134;2022-08-03T06:09:11;3.60;;;3.40;;
5813;SDS011;2933;52.302;8.134;2022-08-03T06:14:12;7.77;;;3.73;;
5813;SDS011;2933;52.302;8.134;2022-08-03T06:19:15;4.70;;;3.23;;
5813;SDS011;2933;52.302;8.134;2022-08-03T06:24:17;6.47;;;3.53;;
5813;SDS011;2933;52.302;8.134;2022-08-03T06:29:18;3.43;;;3.23;;
5813;SDS011;2933;52.302;8.134;2022-08-03T06:34:21;6.63;;;3.80;;
5813;SDS011;2933;52.302;8.134;2022-08-03T06:39:23;3.00;;;2.80;;
5813;SDS011;2933;52.302;8.134;2022-08-03T06:44:24;4.70;;;3.17;;
5813;SDS011;2933;52.302;8.134;2022-08-03T06:49:27;7.57;;;2.83;;
5813;SDS011;2933;52.302;8.134;2022-08-03T06:54:29;2.93;;;2.50;;
5813;SDS011;2933;52.302;8.134;2022-08-03T06:59:31;9.10;;;2.87;;
5813;SDS011;2933;52.302;8.134;2022-08-03T07:04:34;6.50;;;2.70;;
5813;SDS011;2933;52.302;8.134;2022-08-03T07:09:35;4.43;;;2.50;;
5813;SDS011;2933;52.302;8.134;2022-08-03T07:14:37;3.57;;;2.10;;
5813;SDS011;2933;52.302;8.134;2022-08-03T07:19:40;9.23;;;2.27;;
5813;SDS011;2933;52.302;8.134;2022-08-03T07:24:41;2.00;;;1.90;;
5813;SDS011;2933;52.302;8.134;2022-08-03T07:29:43;7.60;;;2.60;;
5813;SDS011;2933;52.302;8.134;2022-08-03T07:34:46;2.40;;;1.80;;
5813;SDS011;2933;52.302;8.134;2022-08-03T07:39:48;7.10;;;2.80;;
5813;SDS011;2933;52.302;8.134;2022-08-03T07:44:50;3.80;;;2.20;;
5813;SDS011;2933;52.302;8.134;2022-08-03T07:49:53;3.17;;;2.03;;
5813;SDS011;2933;52.302;8.134;2022-08-03T07:54:55;3.80;;;2.00;;
5813;SDS011;2933;52.302;8.134;2022-08-03T07:59:56;2.23;;;1.97;;
5813;SDS011;2933;52.302;8.134;2022-08-03T08:04:59;2.07;;;1.97;;
5813;SDS011;2933;52.302;8.134;2022-08-03T08:10:01;2.00;;;1.90;;
5813;SDS011;2933;52.302;8.134;2022-08-03T08:15:04;2.13;;;1.70;;
5813;SDS011;2933;52.302;8.134;2022-08-03T08:20:09;2.80;;;2.33;;
5813;SDS011;2933;52.302;8.134;2022-08-03T08:25:11;5.80;;;2.17;;
5813;SDS011;2933;52.302;8.134;2022-08-03T08:30:15;3.50;;;1.80;;
5813;SDS011;2933;52.302;8.134;2022-08-03T08:35:19;1.30;;;1.30;;
5813;SDS011;2933;52.302;8.134;2022-08-03T08:40:21;2.43;;;1.77;;
5813;SDS011;2933;52.302;8.134;2022-08-03T08:45:23;1.50;;;1.50;;
5813;SDS011;2933;52.302;8.134;2022-08-03T08:50:26;4.30;;;1.80;;
5813;SDS011;2933;52.302;8.134;2022-08-03T08:55:28;7.00;;;1.80;;
5813;SDS011;2933;52.302;8.134;2022-08-03T09:00:31;4.37;;;1.80;;
5813;SDS011;2933;52.302;8.134;2022-08-03T09:05:34;4.03;;;2.07;;
5813;SDS011;2933;52.302;8.134;2022-08-03T09:10:37;2.73;;;1.80;;
5813;SDS011;2933;52.302;8.134;2022-08-03T09:15:38;3.60;;;1.93;;
5813;SDS011;2933;52.302;8.134;2022-08-03T09:20:42;2.00;;;1.90;;
5813;SDS011;2933;52.302;8.134;2022-08-03T09:25:44;2.00;;;1.60;;
5813;SDS011;2933;52.302;8.134;2022-08-03T09:30:56;2.43;;;1.70;;
5813;SDS011;2933;52.302;8.134;2022-08-03T09:36:00;8.93;;;2.10;;
5813;SDS011;2933;52.302;8.134;2022-08-03T09:41:01;1.80;;;1.70;;
5813;SDS011;2933;52.302;8.134;2022-08-03T09:46:05;6.07;;;1.50;;
5813;SDS011;2933;52.302;8.134;2022-08-03T09:51:08;7.00;;;1.90;;
5813;SDS011;2933;52.302;8.134;2022-08-03T09:56:11;3.73;;;1.80;;
5813;SDS011;2933;52.302;8.134;2022-08-03T10:01:13;2.33;;;2.23;;
5813;SDS011;2933;52.302;8.134;2022-08-03T10:06:16;1.73;;;1.50;;
5813;SDS011;2933;52.302;8.134;2022-08-03T10:11:28;2.17;;;2.07;;
5813;SDS011;2933;52.302;8.134;2022-08-03T10:16:33;3.57;;;2.13;;
5813;SDS011;2933;52.302;8.134;2022-08-03T10:21:38;3.17;;;1.60;;
5813;SDS011;2933;52.302;8.134;2022-08-03T10:26:43;4.37;;;1.90;;
5813;SDS011;2933;52.302;8.134;2022-08-03T10:31:45;4.20;;;1.63;;
5813;SDS011;2933;52.302;8.134;2022-08-03T10:36:50;5.80;;;1.50;;
5813;SDS011;2933;52.302;8.134;2022-08-03T10:41:56;2.90;;;2.00;;
5813;SDS011;2933;52.302;8.134;2022-08-03T10:46:58;5.67;;;2.03;;
5813;SDS011;2933;52.302;8.134;2022-08-03T10:52:02;3.00;;;1.60;;
5813;SDS011;2933;52.302;8.134;2022-08-03T10:57:05;1.80;;;1.70;;
5813;SDS011;2933;52.302;8.134;2022-08-03T11:13:30;4.93;;;1.80;;
5813;SDS011;2933;52.302;8.134;2022-08-03T11:18:32;2.10;;;1.87;;
5813;SDS011;2933;52.302;8.134;2022-08-03T11:23:44;1.47;;;1.33;;
5813;SDS011;2933;52.302;8.134;2022-08-03T11:28:47;3.57;;;1.90;;
5813;SDS011;2933;52.302;8.134;2022-08-03T11:34:01;6.73;;;2.07;;
5813;SDS011;2933;52.302;8.134;2022-08-03T11:39:14;4.73;;;1.67;;
5813;SDS011;2933;52.302;8.134;2022-08-03T11:49:42;3.27;;;1.40;;
5813;SDS011;2933;52.302;8.134;2022-08-03T11:54:52;3.10;;;1.60;;
5813;SDS011;2933;52.302;8.134;2022-08-03T11:59:55;6.83;;;1.70;;
5813;SDS011;2933;52.302;8.134;2022-08-03T12:04:58;4.60;;;1.40;;
5813;SDS011;2933;52.302;8.134;2022-08-03T12:10:08;6.87;;;1.50;;
5813;SDS011;2933;52.302;8.134;2022-08-03T12:15:14;5.43;;;2.03;;
5813;SDS011;2933;52.302;8.134;2022-08-03T12:20:19;1.90;;;1.67;;
5813;SDS011;2933;52.302;8.134;2022-08-03T12:25:32;3.37;;;2.00;;
5813;SDS011;2933;52.302;8.134;2022-08-03T12:30:36;2.40;;;1.33;;
5813;SDS011;2933;52.302;8.134;2022-08-03T12:35:42;8.17;;;2.40;;
5813;SDS011;2933;52.302;8.134;2022-08-03T12:40:48;6.13;;;1.80;;
5813;SDS011;2933;52.302;8.134;2022-08-03T12:46:12;2.57;;;1.83;;
5813;SDS011;2933;52.302;8.134;2022-08-03T12:51:19;3.20;;;1.97;;
5813;SDS011;2933;52.302;8.134;2022-08-03T12:56:27;10.70;;;1.50;;
5813;SDS011;2933;52.302;8.134;2022-08-03T13:01:35;1.93;;;1.60;;
5813;SDS011;2933;52.302;8.134;2022-08-03T13:06:37;2.20;;;1.30;;
5813;SDS011;2933;52.302;8.134;2022-08-03T13:11:40;5.80;;;1.40;;
5813;SDS011;2933;52.302;8.134;2022-08-03T13:16:46;1.53;;;1.33;;
5813;SDS011;2933;52.302;8.134;2022-08-03T13:21:49;2.30;;;1.90;;
5813;SDS011;2933;52.302;8.134;2022-08-03T13:26:53;1.87;;;1.30;;
5813;SDS011;2933;52.302;8.134;2022-08-03T13:31:55;4.20;;;1.67;;
5813;SDS011;2933;52.302;8.134;2022-08-03T13:36:57;3.00;;;1.67;;
5813;SDS011;2933;52.302;8.134;2022-08-03T13:42:05;4.57;;;1.73;;
5813;SDS011;2933;52.302;8.134;2022-08-03T13:47:10;2.60;;;1.60;;
5813;SDS011;2933;52.302;8.134;2022-08-03T13:52:18;4.63;;;1.70;;
5813;SDS011;2933;52.302;8.134;2022-08-03T13:57:24;6.63;;;1.67;;
5813;SDS011;2933;52.302;8.134;2022-08-03T14:02:26;1.43;;;1.10;;
5813;SDS011;2933;52.302;8.134;2022-08-03T14:07:30;3.27;;;1.40;;
5813;SDS011;2933;52.302;8.134;2022-08-03T14:12:38;2.90;;;1.20;;
5813;SDS011;2933;52.302;8.134;2022-08-03T14:17:40;8.27;;;1.60;;
5813;SDS011;2933;52.302;8.134;2022-08-03T14:22:48;2.83;;;1.37;;
5813;SDS011;2933;52.302;8.134;2022-08-03T14:27:59;5.20;;;1.40;;
5813;SDS011;2933;52.302;8.134;2022-08-03T14:33:03;3.13;;;1.70;;
5813;SDS011;2933;52.302;8.134;2022-08-03T14:38:09;4.53;;;1.67;;
5813;SDS011;2933;52.302;8.134;2022-08-03T14:43:14;6.57;;;1.30;;
5813;SDS011;2933;52.302;8.134;2022-08-03T14:48:19;8.97;;;1.50;;
5813;SDS011;2933;52.302;8.134;2022-08-03T14:53:26;4.20;;;1.33;;
5813;SDS011;2933;52.302;8.134;2022-08-03T14:58:35;3.77;;;1.47;;
5813;SDS011;2933;52.302;8.134;2022-08-03T15:03:41;4.23;;;1.57;;
5813;SDS011;2933;52.302;8.134;2022-08-03T15:08:46;4.87;;;2.00;;
5813;SDS011;2933;52.302;8.134;2022-08-03T15:13:55;3.73;;;1.80;;
5813;SDS011;2933;52.302;8.134;2022-08-03T15:19:01;3.93;;;1.30;;
5813;SDS011;2933;52.302;8.134;2022-08-03T15:24:05;3.93;;;1.20;;
5813;SDS011;2933;52.302;8.134;2022-08-03T15:29:17;6.03;;;1.57;;
5813;SDS011;2933;52.302;8.134;2022-08-03T15:34:33;1.43;;;1.00;;
5813;SDS011;2933;52.302;8.134;2022-08-03T15:39:36;1.70;;;1.50;;
5813;SDS011;2933;52.302;8.134;2022-08-03T15:44:51;2.13;;;1.30;;
5813;SDS011;2933;52.302;8.134;2022-08-03T15:49:57;4.10;;;1.47;;
5813;SDS011;2933;52.302;8.134;2022-08-03T15:55:02;6.50;;;1.40;;
5813;SDS011;2933;52.302;8.134;2022-08-03T16:00:07;3.13;;;1.40;;
5813;SDS011;2933;52.302;8.134;2022-08-03T16:05:11;4.83;;;1.90;;
5813;SDS011;2933;52.302;8.134;2022-08-03T16:10:16;4.40;;;1.43;;
5813;SDS011;2933;52.302;8.134;2022-08-03T16:15:23;1.70;;;1.03;;
5813;SDS011;2933;52.302;8.134;2022-08-03T16:20:27;2.90;;;1.50;;
5813;SDS011;2933;52.302;8.134;2022-08-03T16:25:31;4.73;;;1.43;;
5813;SDS011;2933;52.302;8.134;2022-08-03T16:30:38;4.23;;;1.80;;
5813;SDS011;2933;52.302;8.134;2022-08-03T16:35:41;6.70;;;1.30;;
5813;SDS011;2933;52.302;8.134;2022-08-03T16:40:43;6.20;;;1.13;;
5813;SDS011;2933;52.302;8.134;2022-08-03T16:45:47;5.30;;;1.30;;
5813;SDS011;2933;52.302;8.134;2022-08-03T16:50:50;7.10;;;1.47;;
5813;SDS011;2933;52.302;8.134;2022-08-03T16:55:53;6.60;;;1.17;;
5813;SDS011;2933;52.302;8.134;2022-08-03T17:00:59;2.20;;;1.13;;
5813;SDS011;2933;52.302;8.134;2022-08-03T17:06:00;4.93;;;1.40;;
5813;SDS011;2933;52.302;8.134;2022-08-03T17:11:16;5.17;;;1.10;;
5813;SDS011;2933;52.302;8.134;2022-08-03T17:16:21;6.27;;;2.00;;
5813;SDS011;2933;52.302;8.134;2022-08-03T17:21:24;3.50;;;1.00;;
5813;SDS011;2933;52.302;8.134;2022-08-03T17:26:29;5.90;;;1.53;;
5813;SDS011;2933;52.302;8.134;2022-08-03T17:31:38;3.27;;;1.30;;
5813;SDS011;2933;52.302;8.134;2022-08-03T17:36:44;2.67;;;1.00;;
5813;SDS011;2933;52.302;8.134;2022-08-03T17:41:49;3.23;;;1.67;;
5813;SDS011;2933;52.302;8.134;2022-08-03T17:46:55;7.20;;;1.47;;
5813;SDS011;2933;52.302;8.134;2022-08-03T17:52:00;7.83;;;1.80;;
5813;SDS011;2933;52.302;8.134;2022-08-03T17:57:07;5.07;;;1.00;;
5813;SDS011;2933;52.302;8.134;2022-08-03T18:02:20;3.90;;;1.73;;
5813;SDS011;2933;52.302;8.134;2022-08-03T18:07:51;3.60;;;1.13;;
5813;SDS011;2933;52.302;8.134;2022-08-03T18:13:05;2.90;;;1.50;;
5813;SDS011;2933;52.302;8.134;2022-08-03T18:18:13;4.10;;;1.30;;
5813;SDS011;2933;52.302;8.134;2022-08-03T18:23:18;3.20;;;1.00;;
5813;SDS011;2933;52.302;8.134;2022-08-03T18:28:22;2.47;;;1.10;;
5813;SDS011;2933;52.302;8.134;2022-08-03T18:33:28;10.30;;;1.40;;
5813;SDS011;2933;52.302;8.134;2022-08-03T18:38:34;3.63;;;1.10;;
5813;SDS011;2933;52.302;8.134;2022-08-03T18:43:39;5.20;;;1.50;;
5813;SDS011;2933;52.302;8.134;2022-08-03T18:48:47;1.70;;;1.07;;
5813;SDS011;2933;52.302;8.134;2022-08-03T18:54:03;7.93;;;1.80;;
5813;SDS011;2933;52.302;8.134;2022-08-03T18:59:13;6.20;;;1.37;;
5813;SDS011;2933;52.302;8.134;2022-08-03T19:04:29;6.23;;;1.47;;
5813;SDS011;2933;52.302;8.134;2022-08-03T19:09:40;2.23;;;1.20;;
5813;SDS011;2933;52.302;8.134;2022-08-03T19:14:52;3.40;;;1.20;;
5813;SDS011;2933;52.302;8.134;2022-08-03T19:20:10;8.40;;;1.53;;
5813;SDS011;2933;52.302;8.134;2022-08-03T19:25:13;4.93;;;1.70;;
5813;SDS011;2933;52.302;8.134;2022-08-03T19:30:20;7.63;;;1.57;;
5813;SDS011;2933;52.302;8.134;2022-08-03T19:35:43;6.10;;;2.33;;
5813;SDS011;2933;52.302;8.134;2022-08-03T19:40:57;10.53;;;3.20;;
5813;SDS011;2933;52.302;8.134;2022-08-03T19:46:09;6.10;;;3.10;;
5813;SDS011;2933;52.302;8.134;2022-08-03T19:51:22;7.67;;;3.93;;
5813;SDS011;2933;52.302;8.134;2022-08-03T19:56:31;18.23;;;3.97;;
5813;SDS011;2933;52.302;8.134;2022-08-03T20:01:45;15.40;;;3.53;;
5813;SDS011;2933;52.302;8.134;2022-08-03T20:06:51;8.10;;;3.63;;
5813;SDS011;2933;52.302;8.134;2022-08-03T20:12:04;11.47;;;1.80;;
5813;SDS011;2933;52.302;8.134;2022-08-03T20:17:10;6.97;;;1.87;;
5813;SDS011;2933;52.302;8.134;2022-08-03T20:22:13;4.50;;;2.13;;
5813;SDS011;2933;52.302;8.134;2022-08-03T20:27:16;9.63;;;2.23;;
5813;SDS011;2933;52.302;8.134;2022-08-03T20:32:20;11.83;;;2.13;;
5813;SDS011;2933;52.302;8.134;2022-08-03T20:37:23;3.40;;;1.73;;
5813;SDS011;2933;52.302;8.134;2022-08-03T20:42:25;7.83;;;1.70;;
5813;SDS011;2933;52.302;8.134;2022-08-03T20:47:26;6.97;;;2.00;;
5813;SDS011;2933;52.302;8.134;2022-08-03T20:52:31;6.53;;;2.03;;
5813;SDS011;2933;52.302;8.134;2022-08-03T20:57:33;3.07;;;1.40;;
5813;SDS011;2933;52.302;8.134;2022-08-03T21:02:34;4.27;;;1.50;;
5813;SDS011;2933;52.302;8.134;2022-08-03T21:07:39;6.53;;;1.90;;
5813;SDS011;2933;52.302;8.134;2022-08-03T21:12:45;6.07;;;2.23;;
5813;SDS011;2933;52.302;8.134;2022-08-03T21:17:51;8.87;;;2.20;;
5813;SDS011;2933;52.302;8.134;2022-08-03T21:22:58;12.83;;;2.47;;
5813;SDS011;2933;52.302;8.134;2022-08-03T21:28:01;20.97;;;2.67;;
5813;SDS011;2933;52.302;8.134;2022-08-03T21:33:07;4.93;;;2.00;;
5813;SDS011;2933;52.302;8.134;2022-08-03T21:38:14;14.70;;;3.20;;
5813;SDS011;2933;52.302;8.134;2022-08-03T21:43:21;9.13;;;2.43;;
5813;SDS011;2933;52.302;8.134;2022-08-03T21:48:23;7.60;;;2.43;;
5813;SDS011;2933;52.302;8.134;2022-08-03T21:53:27;8.07;;;2.53;;
5813;SDS011;2933;52.302;8.134;2022-08-03T21:58:36;5.70;;;2.03;;
5813;SDS011;2933;52.302;8.134;2022-08-03T22:03:41;7.33;;;1.73;;
5813;SDS011;2933;52.302;8.134;2022-08-03T22:08:44;4.37;;;1.90;;
5813;SDS011;2933;52.302;8.134;2022-08-03T22:13:46;5.70;;;2.20;;
5813;SDS011;2933;52.302;8.134;2022-08-03T22:18:48;8.43;;;1.70;;
5813;SDS011;2933;52.302;8.134;2022-08-03T22:23:51;4.40;;;1.77;;
5813;SDS011;2933;52.302;8.134;2022-08-03T22:28:54;8.43;;;1.80;;
5813;SDS011;2933;52.302;8.134;2022-08-03T22:33:57;9.83;;;1.80;;
5813;SDS011;2933;52.302;8.134;2022-08-03T22:39:00;5.87;;;2.17;;
5813;SDS011;2933;52.302;8.134;2022-08-03T22:44:02;11.93;;;2.17;;
5813;SDS011;2933;52.302;8.134;2022-08-03T22:49:04;8.67;;;1.80;;
5813;SDS011;2933;52.302;8.134;2022-08-03T22:54:08;6.17;;;2.23;;
5813;SDS011;2933;52.302;8.134;2022-08-03T22:59:11;6.17;;;2.07;;
5813;SDS011;2933;52.302;8.134;2022-08-03T23:04:12;2.90;;;1.70;;
5813;SDS011;2933;52.302;8.134;2022-08-03T23:09:17;7.47;;;2.37;;
5813;SDS011;2933;52.302;8.134;2022-08-03T23:14:23;10.23;;;2.03;;
5813;SDS011;2933;52.302;8.134;2022-08-03T23:19:29;4.20;;;1.63;;
5813;SDS011;2933;52.302;8.134;2022-08-03T23:24:33;6.27;;;2.37;;
5813;SDS011;2933;52.302;8.134;2022-08-03T23:29:36;5.30;;;1.90;;
5813;SDS011;2933;52.302;8.134;2022-08-03T23:34:39;5.47;;;1.80;;
5813;SDS011;2933;52.302;8.134;2022-08-03T23:40:02;5.80;;;2.10;;
5813;SDS011;2933;52.302;8.134;2022-08-03T23:45:05;8.77;;;2.00;;
5813;SDS011;2933;52.302;8.134;2022-08-03T23:50:08;8.40;;;1.90;;
5813;SDS011;2933;52.302;8.134;2022-08-03T23:55:15;10.63;;;2.40;;
